Terminal Aerodrome Forecast
Issued by NWS Shreveport, LA

Home | Current Version | Previous Version | Text Only | Print | Product List | Glossary On
Versions: 1 2 3 4 5 6 7 8 9 10 11 12 13 14 15 16 17 18 19 20
593
FTUS44 KSHV 270049 AAA
TAFSHV
TAF AMD
KSHV 270049Z 2701/2724 18010KT P6SM FEW060 SCT120 BKN290
     FM270600 18010KT P6SM BKN040 BKN250
      TEMPO 2706/2708 18013KT BKN030 BKN130
     FM270800 18010KT P6SM BKN025
      TEMPO 2709/2713 OVC015
     FM271600 21012KT P6SM SCT030
     FM271800 23014G20KT P6SM BKN050=

USA.gov is the U.S. government's official web portal to all federal, state and local government web resources and services.